sensor_id;sensor_type;location;lat;lon;timestamp;pressure;altitude;pressure_sealevel;temperature;humidity
41686;BME280;27370;42.764;23.432;2023-08-12T00:02:09;96150.19;;;13.89;100.00
41686;BME280;27370;42.764;23.432;2023-08-12T00:04:34;96152.78;;;13.73;100.00
41686;BME280;27370;42.764;23.432;2023-08-12T00:07:00;96149.22;;;13.76;100.00
41686;BME280;27370;42.764;23.432;2023-08-12T00:09:25;96154.22;;;13.54;100.00
41686;BME280;27370;42.764;23.432;2023-08-12T00:11:51;96153.88;;;13.52;100.00
41686;BME280;27370;42.764;23.432;2023-08-12T00:14:16;96154.28;;;13.51;100.00
41686;BME280;27370;42.764;23.432;2023-08-12T00:16:42;96159.50;;;13.41;100.00
41686;BME280;27370;42.764;23.432;2023-08-12T00:19:07;96153.53;;;13.23;100.00
41686;BME280;27370;42.764;23.432;2023-08-12T00:21:33;96149.78;;;13.40;100.00
41686;BME280;27370;42.764;23.432;2023-08-12T00:23:59;96146.66;;;13.42;100.00
41686;BME280;27370;42.764;23.432;2023-08-12T00:26:24;96154.34;;;13.47;100.00
41686;BME280;27370;42.764;23.432;2023-08-12T00:28:50;96149.47;;;13.35;100.00
41686;BME280;27370;42.764;23.432;2023-08-12T00:31:16;96151.69;;;13.43;100.00
41686;BME280;27370;42.764;23.432;2023-08-12T00:33:42;96152.75;;;13.49;100.00
41686;BME280;27370;42.764;23.432;2023-08-12T00:36:07;96152.75;;;13.49;100.00
41686;BME280;27370;42.764;23.432;2023-08-12T00:38:34;96146.66;;;13.42;100.00
41686;BME280;27370;42.764;23.432;2023-08-12T00:41:01;96151.78;;;13.36;100.00
41686;BME280;27370;42.764;23.432;2023-08-12T00:43:26;96148.56;;;13.18;100.00
41686;BME280;27370;42.764;23.432;2023-08-12T00:45:52;96147.09;;;13.06;100.00
41686;BME280;27370;42.764;23.432;2023-08-12T00:48:19;96153.56;;;13.20;100.00
41686;BME280;27370;42.764;23.432;2023-08-12T00:50:44;96147.06;;;13.10;100.00
41686;BME280;27370;42.764;23.432;2023-08-12T00:53:12;96147.63;;;12.98;100.00
41686;BME280;27370;42.764;23.432;2023-08-12T00:55:38;96153.16;;;13.21;100.00
41686;BME280;27370;42.764;23.432;2023-08-12T00:58:04;96145.53;;;13.09;100.00
41686;BME280;27370;42.764;23.432;2023-08-12T01:00:31;96145.03;;;12.87;100.00
41686;BME280;27370;42.764;23.432;2023-08-12T01:02:56;96145.00;;;12.91;100.00
41686;BME280;27370;42.764;23.432;2023-08-12T01:05:22;96141.41;;;12.97;100.00
41686;BME280;27370;42.764;23.432;2023-08-12T01:07:47;96135.56;;;12.99;100.00
41686;BME280;27370;42.764;23.432;2023-08-12T01:10:14;96135.66;;;12.92;100.00
41686;BME280;27370;42.764;23.432;2023-08-12T01:15:18;96136.84;;;12.91;100.00
41686;BME280;27370;42.764;23.432;2023-08-12T01:17:49;96133.06;;;12.81;100.00
41686;BME280;27370;42.764;23.432;2023-08-12T01:20:20;96134.19;;;12.83;100.00
41686;BME280;27370;42.764;23.432;2023-08-12T01:22:56;96137.69;;;12.84;100.00
41686;BME280;27370;42.764;23.432;2023-08-12T01:25:24;96137.47;;;12.71;100.00
41686;BME280;27370;42.764;23.432;2023-08-12T01:27:51;96137.13;;;12.66;100.00
41686;BME280;27370;42.764;23.432;2023-08-12T01:30:18;96136.34;;;12.65;100.00
41686;BME280;27370;42.764;23.432;2023-08-12T01:35:30;96140.63;;;12.66;100.00
41686;BME280;27370;42.764;23.432;2023-08-12T01:37:59;96137.19;;;12.62;100.00
41686;BME280;27370;42.764;23.432;2023-08-12T01:40:28;96127.56;;;12.54;100.00
41686;BME280;27370;42.764;23.432;2023-08-12T01:42:54;96133.88;;;12.44;100.00
41686;BME280;27370;42.764;23.432;2023-08-12T01:45:20;96118.84;;;12.36;100.00
41686;BME280;27370;42.764;23.432;2023-08-12T01:47:45;96139.63;;;12.53;100.00
41686;BME280;27370;42.764;23.432;2023-08-12T01:50:11;96139.63;;;12.53;100.00
41686;BME280;27370;42.764;23.432;2023-08-12T01:52:37;96138.09;;;12.52;100.00
41686;BME280;27370;42.764;23.432;2023-08-12T01:55:03;96137.34;;;12.48;100.00
41686;BME280;27370;42.764;23.432;2023-08-12T01:57:29;96138.84;;;12.52;100.00
41686;BME280;27370;42.764;23.432;2023-08-12T01:59:54;96143.66;;;12.38;100.00
41686;BME280;27370;42.764;23.432;2023-08-12T02:02:20;96141.34;;;12.36;100.00
41686;BME280;27370;42.764;23.432;2023-08-12T02:04:46;96141.31;;;12.40;100.00
41686;BME280;27370;42.764;23.432;2023-08-12T02:07:11;96143.59;;;12.45;100.00
41686;BME280;27370;42.764;23.432;2023-08-12T02:09:36;96137.59;;;12.26;100.00
41686;BME280;27370;42.764;23.432;2023-08-12T02:12:02;96144.50;;;12.31;100.00
41686;BME280;27370;42.764;23.432;2023-08-12T02:14:28;96140.19;;;12.37;100.00
41686;BME280;27370;42.764;23.432;2023-08-12T02:16:53;96133.28;;;12.29;100.00
41686;BME280;27370;42.764;23.432;2023-08-12T02:19:20;96137.34;;;12.48;100.00
41686;BME280;27370;42.764;23.432;2023-08-12T02:21:46;96136.69;;;12.37;100.00
41686;BME280;27370;42.764;23.432;2023-08-12T02:24:11;96141.44;;;12.29;100.00
41686;BME280;27370;42.764;23.432;2023-08-12T02:26:37;96135.59;;;12.31;100.00
41686;BME280;27370;42.764;23.432;2023-08-12T02:29:03;96144.19;;;12.25;100.00
41686;BME280;27370;42.764;23.432;2023-08-12T02:31:29;96144.97;;;12.26;100.00
41686;BME280;27370;42.764;23.432;2023-08-12T02:33:55;96148.53;;;12.16;100.00
41686;BME280;27370;42.764;23.432;2023-08-12T02:36:20;96150.84;;;12.17;100.00
41686;BME280;27370;42.764;23.432;2023-08-12T02:38:46;96153.16;;;12.22;100.00
41686;BME280;27370;42.764;23.432;2023-08-12T02:41:11;96140.56;;;12.36;100.00
41686;BME280;27370;42.764;23.432;2023-08-12T02:43:37;96144.28;;;12.15;100.00
41686;BME280;27370;42.764;23.432;2023-08-12T02:46:02;96140.84;;;12.11;100.00
41686;BME280;27370;42.764;23.432;2023-08-12T02:48:28;96148.66;;;12.05;100.00
41686;BME280;27370;42.764;23.432;2023-08-12T02:50:53;96153.59;;;12.14;100.00
41686;BME280;27370;42.764;23.432;2023-08-12T02:53:19;96144.41;;;12.04;100.00
41686;BME280;27370;42.764;23.432;2023-08-12T02:55:45;96156.47;;;11.96;100.00
41686;BME280;27370;42.764;23.432;2023-08-12T02:58:11;96159.28;;;11.85;100.00
41686;BME280;27370;42.764;23.432;2023-08-12T03:00:36;96171.31;;;11.84;100.00
41686;BME280;27370;42.764;23.432;2023-08-12T03:03:02;96163.16;;;11.88;100.00
41686;BME280;27370;42.764;23.432;2023-08-12T03:05:27;96164.97;;;11.98;100.00
41686;BME280;27370;42.764;23.432;2023-08-12T03:07:53;96171.50;;;12.08;100.00
41686;BME280;27370;42.764;23.432;2023-08-12T03:10:18;96167.97;;;12.11;100.00
41686;BME280;27370;42.764;23.432;2023-08-12T03:12:44;96177.69;;;12.08;100.00
41686;BME280;27370;42.764;23.432;2023-08-12T03:15:10;96168.63;;;11.81;100.00
41686;BME280;27370;42.764;23.432;2023-08-12T03:17:36;96182.09;;;11.91;100.00
41686;BME280;27370;42.764;23.432;2023-08-12T03:20:06;96176.97;;;12.04;100.00
41686;BME280;27370;42.764;23.432;2023-08-12T03:22:37;96169.19;;;12.06;100.00
41686;BME280;27370;42.764;23.432;2023-08-12T03:25:04;96179.88;;;12.24;100.00
41686;BME280;27370;42.764;23.432;2023-08-12T03:27:31;96175.63;;;12.23;100.00
41686;BME280;27370;42.764;23.432;2023-08-12T03:29:57;96177.59;;;12.19;100.00
41686;BME280;27370;42.764;23.432;2023-08-12T03:32:24;96185.81;;;12.12;100.00
41686;BME280;27370;42.764;23.432;2023-08-12T03:34:49;96179.28;;;12.06;100.00
41686;BME280;27370;42.764;23.432;2023-08-12T03:37:15;96180.09;;;12.03;100.00
41686;BME280;27370;42.764;23.432;2023-08-12T03:39:41;96178.56;;;11.98;100.00
41686;BME280;27370;42.764;23.432;2023-08-12T03:42:07;96178.19;;;12.00;100.00
41686;BME280;27370;42.764;23.432;2023-08-12T03:44:34;96178.94;;;12.00;100.00
41686;BME280;27370;42.764;23.432;2023-08-12T03:47:00;96178.50;;;12.05;100.00
41686;BME280;27370;42.764;23.432;2023-08-12T03:49:26;96178.13;;;12.03;100.00
41686;BME280;27370;42.764;23.432;2023-08-12T03:51:52;96168.09;;;11.96;100.00
41686;BME280;27370;42.764;23.432;2023-08-12T03:54:18;96182.75;;;12.06;100.00
41686;BME280;27370;42.764;23.432;2023-08-12T03:56:43;96185.84;;;12.08;100.00
41686;BME280;27370;42.764;23.432;2023-08-12T03:59:09;96180.38;;;12.12;100.00
41686;BME280;27370;42.764;23.432;2023-08-12T04:01:35;96179.97;;;12.13;100.00
41686;BME280;27370;42.764;23.432;2023-08-12T04:04:02;96186.47;;;12.26;100.00
41686;BME280;27370;42.764;23.432;2023-08-12T04:06:27;96178.28;;;12.30;100.00
41686;BME280;27370;42.764;23.432;2023-08-12T04:08:53;96188.97;;;12.48;100.00
41686;BME280;27370;42.764;23.432;2023-08-12T04:11:19;96188.16;;;12.51;100.00
41686;BME280;27370;42.764;23.432;2023-08-12T04:13:45;96191.41;;;12.73;100.00
41686;BME280;27370;42.764;23.432;2023-08-12T04:16:12;96192.59;;;13.02;100.00
41686;BME280;27370;42.764;23.432;2023-08-12T04:18:37;96188.72;;;13.34;100.00
41686;BME280;27370;42.764;23.432;2023-08-12T04:21:03;96181.84;;;13.53;100.00
41686;BME280;27370;42.764;23.432;2023-08-12T04:23:28;96180.31;;;13.52;100.00
41686;BME280;27370;42.764;23.432;2023-08-12T04:25:54;96188.63;;;13.68;100.00
41686;BME280;27370;42.764;23.432;2023-08-12T04:28:23;96185.47;;;13.96;100.00
41686;BME280;27370;42.764;23.432;2023-08-12T04:30:49;96176.09;;;14.21;100.00
41686;BME280;27370;42.764;23.432;2023-08-12T04:33:19;96176.03;;;14.48;100.00
41686;BME280;27370;42.764;23.432;2023-08-12T04:35:48;96177.59;;;14.68;100.00
41686;BME280;27370;42.764;23.432;2023-08-12T04:38:15;96173.25;;;14.91;100.00
41686;BME280;27370;42.764;23.432;2023-08-12T04:40:42;96165.00;;;15.50;100.00
41686;BME280;27370;42.764;23.432;2023-08-12T04:43:08;96156.84;;;15.99;100.00
41686;BME280;27370;42.764;23.432;2023-08-12T04:45:34;96152.50;;;16.47;100.00
41686;BME280;27370;42.764;23.432;2023-08-12T04:48:01;96144.84;;;16.71;100.00
41686;BME280;27370;42.764;23.432;2023-08-12T04:50:31;96142.44;;;17.02;100.00
41686;BME280;27370;42.764;23.432;2023-08-12T04:53:00;96142.91;;;17.51;100.00
41686;BME280;27370;42.764;23.432;2023-08-12T04:55:25;96142.47;;;18.25;100.00
41686;BME280;27370;42.764;23.432;2023-08-12T04:57:51;96137.97;;;18.88;100.00
41686;BME280;27370;42.764;23.432;2023-08-12T05:00:18;96130.63;;;19.38;100.00
41686;BME280;27370;42.764;23.432;2023-08-12T05:02:43;96134.00;;;19.82;100.00
41686;BME280;27370;42.764;23.432;2023-08-12T05:05:09;96132.84;;;20.01;100.00
41686;BME280;27370;42.764;23.432;2023-08-12T05:07:35;96141.84;;;20.11;100.00
41686;BME280;27370;42.764;23.432;2023-08-12T05:10:02;96136.44;;;19.71;100.00
41686;BME280;27370;42.764;23.432;2023-08-12T05:12:29;96142.16;;;19.54;100.00
41686;BME280;27370;42.764;23.432;2023-08-12T05:14:54;96146.66;;;19.08;100.00
41686;BME280;27370;42.764;23.432;2023-08-12T05:17:20;96149.72;;;18.88;100.00
41686;BME280;27370;42.764;23.432;2023-08-12T05:19:45;96151.38;;;18.86;100.00
41686;BME280;27370;42.764;23.432;2023-08-12T05:22:11;96150.66;;;18.94;100.00
41686;BME280;27370;42.764;23.432;2023-08-12T05:24:37;96143.97;;;18.95;100.00
41686;BME280;27370;42.764;23.432;2023-08-12T05:27:02;96152.50;;;18.97;100.00
41686;BME280;27370;42.764;23.432;2023-08-12T05:29:29;96141.38;;;18.35;100.00
41686;BME280;27370;42.764;23.432;2023-08-12T05:31:55;96141.69;;;18.38;100.00
41686;BME280;27370;42.764;23.432;2023-08-12T05:34:20;96155.56;;;18.56;100.00
41686;BME280;27370;42.764;23.432;2023-08-12T05:36:46;96154.56;;;18.50;100.00
41686;BME280;27370;42.764;23.432;2023-08-12T05:39:11;96158.53;;;18.83;100.00
41686;BME280;27370;42.764;23.432;2023-08-12T05:41:37;96145.66;;;19.24;100.00
41686;BME280;27370;42.764;23.432;2023-08-12T05:44:03;96152.72;;;19.56;100.00
41686;BME280;27370;42.764;23.432;2023-08-12T05:46:28;96150.88;;;19.62;100.00
41686;BME280;27370;42.764;23.432;2023-08-12T05:48:54;96151.72;;;19.72;100.00
41686;BME280;27370;42.764;23.432;2023-08-12T05:51:19;96143.19;;;19.88;100.00
41686;BME280;27370;42.764;23.432;2023-08-12T05:53:45;96154.72;;;19.65;100.00
41686;BME280;27370;42.764;23.432;2023-08-12T05:56:10;96151.94;;;19.55;100.00
41686;BME280;27370;42.764;23.432;2023-08-12T05:58:36;96152.59;;;19.69;100.00
41686;BME280;27370;42.764;23.432;2023-08-12T06:01:02;96141.56;;;19.28;100.00
41686;BME280;27370;42.764;23.432;2023-08-12T06:03:27;96143.75;;;19.12;100.00
41686;BME280;27370;42.764;23.432;2023-08-12T06:05:52;96137.91;;;19.53;100.00
41686;BME280;27370;42.764;23.432;2023-08-12T06:08:18;96132.69;;;19.96;100.00
41686;BME280;27370;42.764;23.432;2023-08-12T06:10:44;96125.97;;;19.97;100.00
41686;BME280;27370;42.764;23.432;2023-08-12T06:13:09;96119.03;;;20.60;100.00
41686;BME280;27370;42.764;23.432;2023-08-12T06:15:35;96128.06;;;21.21;100.00
41686;BME280;27370;42.764;23.432;2023-08-12T06:18:02;96126.94;;;21.55;100.00
41686;BME280;27370;42.764;23.432;2023-08-12T06:20:27;96119.78;;;21.72;100.00
41686;BME280;27370;42.764;23.432;2023-08-12T06:22:53;96122.94;;;21.89;100.00
41686;BME280;27370;42.764;23.432;2023-08-12T06:25:19;96129.00;;;22.50;100.00
41686;BME280;27370;42.764;23.432;2023-08-12T06:27:45;96131.66;;;21.87;100.00
41686;BME280;27370;42.764;23.432;2023-08-12T06:30:12;96129.63;;;21.64;100.00
41686;BME280;27370;42.764;23.432;2023-08-12T06:32:38;96120.28;;;21.94;100.00
41686;BME280;27370;42.764;23.432;2023-08-12T06:35:04;96120.09;;;22.07;100.00
41686;BME280;27370;42.764;23.432;2023-08-12T06:37:29;96118.16;;;22.22;100.00
41686;BME280;27370;42.764;23.432;2023-08-12T06:39:55;96115.50;;;22.28;100.00
41686;BME280;27370;42.764;23.432;2023-08-12T06:42:21;96107.31;;;22.19;100.00
41686;BME280;27370;42.764;23.432;2023-08-12T06:44:56;96109.19;;;22.51;100.00
41686;BME280;27370;42.764;23.432;2023-08-12T06:47:22;96104.44;;;22.90;100.00
41686;BME280;27370;42.764;23.432;2023-08-12T06:49:47;96102.91;;;23.34;100.00
41686;BME280;27370;42.764;23.432;2023-08-12T06:52:13;96103.00;;;23.74;100.00
41686;BME280;27370;42.764;23.432;2023-08-12T06:54:39;96098.50;;;24.12;100.00
41686;BME280;27370;42.764;23.432;2023-08-12T06:57:04;96103.00;;;24.09;100.00
41686;BME280;27370;42.764;23.432;2023-08-12T06:59:30;96103.16;;;23.65;100.00
41686;BME280;27370;42.764;23.432;2023-08-12T07:01:55;96096.06;;;23.14;100.00
41686;BME280;27370;42.764;23.432;2023-08-12T07:04:21;96101.03;;;22.72;100.00
41686;BME280;27370;42.764;23.432;2023-08-12T07:06:46;96096.81;;;23.00;100.00
41686;BME280;27370;42.764;23.432;2023-08-12T07:09:13;96095.81;;;23.62;100.00
41686;BME280;27370;42.764;23.432;2023-08-12T07:11:38;96087.78;;;23.99;100.00
41686;BME280;27370;42.764;23.432;2023-08-12T07:14:04;96094.22;;;24.52;100.00
41686;BME280;27370;42.764;23.432;2023-08-12T07:16:29;96087.69;;;24.75;100.00
41686;BME280;27370;42.764;23.432;2023-08-12T07:18:55;96080.34;;;24.98;100.00
41686;BME280;27370;42.764;23.432;2023-08-12T07:21:20;96094.31;;;25.09;100.00
41686;BME280;27370;42.764;23.432;2023-08-12T07:23:46;96089.78;;;24.86;100.00
41686;BME280;27370;42.764;23.432;2023-08-12T07:26:11;96083.16;;;24.52;100.00
41686;BME280;27370;42.764;23.432;2023-08-12T07:28:37;96087.25;;;24.36;100.00
41686;BME280;27370;42.764;23.432;2023-08-12T07:31:02;96087.66;;;24.08;100.00
41686;BME280;27370;42.764;23.432;2023-08-12T07:33:28;96085.44;;;23.42;100.00
41686;BME280;27370;42.764;23.432;2023-08-12T07:35:53;96094.44;;;22.54;100.00
41686;BME280;27370;42.764;23.432;2023-08-12T07:38:19;96089.44;;;22.29;100.00
41686;BME280;27370;42.764;23.432;2023-08-12T07:40:44;96093.19;;;22.41;100.00
41686;BME280;27370;42.764;23.432;2023-08-12T07:43:10;96090.75;;;22.19;100.00
41686;BME280;27370;42.764;23.432;2023-08-12T07:45:35;96081.56;;;22.37;100.00
41686;BME280;27370;42.764;23.432;2023-08-12T07:48:01;96072.06;;;22.14;100.00
41686;BME280;27370;42.764;23.432;2023-08-12T07:50:26;96082.44;;;22.43;100.00
41686;BME280;27370;42.764;23.432;2023-08-12T07:52:52;96073.88;;;22.55;100.00
41686;BME280;27370;42.764;23.432;2023-08-12T07:55:18;96073.50;;;22.62;100.00
41686;BME280;27370;42.764;23.432;2023-08-12T07:57:44;96062.84;;;22.55;100.00
41686;BME280;27370;42.764;23.432;2023-08-12T08:00:10;96068.00;;;22.77;100.00
41686;BME280;27370;42.764;23.432;2023-08-12T08:02:37;96064.59;;;22.82;100.00
41686;BME280;27370;42.764;23.432;2023-08-12T08:05:03;96068.88;;;22.69;100.00
41686;BME280;27370;42.764;23.432;2023-08-12T08:07:29;96056.78;;;22.81;100.00
41686;BME280;27370;42.764;23.432;2023-08-12T08:09:54;96061.47;;;23.04;100.00
41686;BME280;27370;42.764;23.432;2023-08-12T08:12:20;96060.69;;;23.04;100.00
41686;BME280;27370;42.764;23.432;2023-08-12T08:14:46;96048.81;;;23.12;100.00
41686;BME280;27370;42.764;23.432;2023-08-12T08:17:11;96062.38;;;23.31;100.00
41686;BME280;27370;42.764;23.432;2023-08-12T08:19:37;96050.47;;;23.25;100.00
41686;BME280;27370;42.764;23.432;2023-08-12T08:22:02;96060.56;;;23.28;100.00
41686;BME280;27370;42.764;23.432;2023-08-12T08:24:28;96056.78;;;23.25;100.00
41686;BME280;27370;42.764;23.432;2023-08-12T08:26:54;96051.84;;;23.14;100.00
41686;BME280;27370;42.764;23.432;2023-08-12T08:29:20;96041.47;;;23.09;100.00
41686;BME280;27370;42.764;23.432;2023-08-12T08:31:45;96037.81;;;23.33;100.00
41686;BME280;27370;42.764;23.432;2023-08-12T08:34:11;96040.50;;;23.62;100.00
41686;BME280;27370;42.764;23.432;2023-08-12T08:36:36;96037.97;;;23.79;100.00
41686;BME280;27370;42.764;23.432;2023-08-12T08:39:02;96047.59;;;24.04;100.00
41686;BME280;27370;42.764;23.432;2023-08-12T08:41:31;96035.13;;;24.14;100.00
41686;BME280;27370;42.764;23.432;2023-08-12T08:44:02;96042.47;;;24.37;100.00
41686;BME280;27370;42.764;23.432;2023-08-12T08:46:29;96037.09;;;24.08;100.00
41686;BME280;27370;42.764;23.432;2023-08-12T08:48:58;96033.41;;;24.17;100.00
41686;BME280;27370;42.764;23.432;2023-08-12T08:51:24;96042.19;;;23.95;100.00
41686;BME280;27370;42.764;23.432;2023-08-12T08:53:53;96034.75;;;24.01;100.00
41686;BME280;27370;42.764;23.432;2023-08-12T08:56:19;96028.63;;;24.17;100.00
41686;BME280;27370;42.764;23.432;2023-08-12T08:58:46;96031.84;;;24.30;100.00
41686;BME280;27370;42.764;23.432;2023-08-12T09:01:11;96030.19;;;24.44;100.00
41686;BME280;27370;42.764;23.432;2023-08-12T09:03:39;96020.56;;;24.60;100.00
41686;BME280;27370;42.764;23.432;2023-08-12T09:06:05;96009.06;;;24.67;100.00
41686;BME280;27370;42.764;23.432;2023-08-12T09:08:33;96018.59;;;24.92;100.00
41686;BME280;27370;42.764;23.432;2023-08-12T09:11:00;96020.31;;;24.89;100.00
41686;BME280;27370;42.764;23.432;2023-08-12T09:13:27;96015.06;;;24.91;100.00
41686;BME280;27370;42.764;23.432;2023-08-12T09:15:53;96008.53;;;24.94;100.00
41686;BME280;27370;42.764;23.432;2023-08-12T09:18:19;96011.41;;;25.06;100.00
41686;BME280;27370;42.764;23.432;2023-08-12T09:20:50;96000.69;;;25.19;100.00
41686;BME280;27370;42.764;23.432;2023-08-12T09:23:15;96004.31;;;25.36;100.00
41686;BME280;27370;42.764;23.432;2023-08-12T09:25:42;96003.97;;;25.60;100.00
41686;BME280;27370;42.764;23.432;2023-08-12T09:28:11;95994.88;;;25.59;100.00
41686;BME280;27370;42.764;23.432;2023-08-12T09:30:38;95997.81;;;25.45;100.00
41686;BME280;27370;42.764;23.432;2023-08-12T09:33:05;95988.00;;;25.49;100.00
41686;BME280;27370;42.764;23.432;2023-08-12T09:35:37;95986.38;;;25.69;100.00
41686;BME280;27370;42.764;23.432;2023-08-12T09:38:04;95982.44;;;25.98;100.00
41686;BME280;27370;42.764;23.432;2023-08-12T09:40:35;95980.16;;;25.85;100.00
41686;BME280;27370;42.764;23.432;2023-08-12T09:43:01;95974.78;;;25.70;100.00
41686;BME280;27370;42.764;23.432;2023-08-12T09:45:27;95965.44;;;25.68;100.00
41686;BME280;27370;42.764;23.432;2023-08-12T09:47:54;95973.22;;;25.21;100.00
41686;BME280;27370;42.764;23.432;2023-08-12T09:50:24;95981.34;;;25.30;100.00
41686;BME280;27370;42.764;23.432;2023-08-12T09:52:51;95973.97;;;25.58;100.00
41686;BME280;27370;42.764;23.432;2023-08-12T09:55:19;95959.47;;;25.86;100.00
41686;BME280;27370;42.764;23.432;2023-08-12T09:57:51;95964.34;;;26.13;100.00
41686;BME280;27370;42.764;23.432;2023-08-12T10:00:18;95957.47;;;25.98;100.00
41686;BME280;27370;42.764;23.432;2023-08-12T10:03:00;95951.91;;;25.92;100.00
41686;BME280;27370;42.764;23.432;2023-08-12T10:05:32;95939.94;;;25.63;100.00
41686;BME280;27370;42.764;23.432;2023-08-12T10:07:58;95951.16;;;25.86;100.00
41686;BME280;27370;42.764;23.432;2023-08-12T10:10:27;95946.94;;;26.18;100.00
41686;BME280;27370;42.764;23.432;2023-08-12T10:12:53;95938.09;;;26.20;100.00
41686;BME280;27370;42.764;23.432;2023-08-12T10:15:19;95941.97;;;26.56;100.00
41686;BME280;27370;42.764;23.432;2023-08-12T10:17:46;95942.75;;;26.62;100.00
41686;BME280;27370;42.764;23.432;2023-08-12T10:20:18;95942.50;;;27.05;100.00
41686;BME280;27370;42.764;23.432;2023-08-12T10:22:46;95944.75;;;27.23;100.00
41686;BME280;27370;42.764;23.432;2023-08-12T10:25:13;95937.06;;;27.57;100.00
41686;BME280;27370;42.764;23.432;2023-08-12T10:27:39;95934.78;;;27.61;100.00
41686;BME280;27370;42.764;23.432;2023-08-12T10:30:05;95924.22;;;27.43;100.00
41686;BME280;27370;42.764;23.432;2023-08-12T10:32:31;95923.72;;;27.44;100.00
41686;BME280;27370;42.764;23.432;2023-08-12T10:34:58;95931.38;;;26.82;100.00
41686;BME280;27370;42.764;23.432;2023-08-12T10:37:26;95929.84;;;26.93;100.00
41686;BME280;27370;42.764;23.432;2023-08-12T10:39:53;95925.72;;;27.38;100.00
41686;BME280;27370;42.764;23.432;2023-08-12T10:45:13;95923.13;;;27.74;100.00
41686;BME280;27370;42.764;23.432;2023-08-12T10:47:51;95910.31;;;27.37;100.00
41686;BME280;27370;42.764;23.432;2023-08-12T10:50:20;95923.75;;;27.28;100.00
41686;BME280;27370;42.764;23.432;2023-08-12T10:52:47;95910.66;;;27.17;100.00
41686;BME280;27370;42.764;23.432;2023-08-12T10:55:16;95916.47;;;26.58;100.00
41686;BME280;27370;42.764;23.432;2023-08-12T10:57:43;95913.97;;;26.54;100.00
41686;BME280;27370;42.764;23.432;2023-08-12T11:02:45;95920.44;;;26.12;100.00
41686;BME280;27370;42.764;23.432;2023-08-12T11:05:13;95904.78;;;26.20;100.00
41686;BME280;27370;42.764;23.432;2023-08-12T11:10:17;95908.44;;;25.67;100.00
41686;BME280;27370;42.764;23.432;2023-08-12T11:12:55;95905.50;;;25.98;100.00
41686;BME280;27370;42.764;23.432;2023-08-12T11:15:38;95913.28;;;25.77;100.00
41686;BME280;27370;42.764;23.432;2023-08-12T11:18:04;95901.31;;;25.54;100.00
41686;BME280;27370;42.764;23.432;2023-08-12T11:20:31;95906.50;;;25.30;100.00
41686;BME280;27370;42.764;23.432;2023-08-12T11:22:57;95900.44;;;25.26;100.00
41686;BME280;27370;42.764;23.432;2023-08-12T11:25:24;95894.69;;;25.35;100.00
41686;BME280;27370;42.764;23.432;2023-08-12T11:27:50;95904.31;;;25.45;100.00
41686;BME280;27370;42.764;23.432;2023-08-12T11:30:20;95896.00;;;25.51;100.00
41686;BME280;27370;42.764;23.432;2023-08-12T11:32:49;95904.63;;;25.58;100.00
41686;BME280;27370;42.764;23.432;2023-08-12T11:35:17;95901.97;;;25.92;100.00
41686;BME280;27370;42.764;23.432;2023-08-12T11:37:45;95891.88;;;25.89;100.00
41686;BME280;27370;42.764;23.432;2023-08-12T11:40:12;95904.03;;;26.08;100.00
41686;BME280;27370;42.764;23.432;2023-08-12T11:42:41;95893.44;;;26.12;100.00
41686;BME280;27370;42.764;23.432;2023-08-12T11:45:08;95890.41;;;26.10;100.00
41686;BME280;27370;42.764;23.432;2023-08-12T11:47:35;95893.44;;;26.18;100.00
41686;BME280;27370;42.764;23.432;2023-08-12T11:50:04;95887.88;;;26.23;100.00
41686;BME280;27370;42.764;23.432;2023-08-12T11:52:30;95887.34;;;25.97;100.00
41686;BME280;27370;42.764;23.432;2023-08-12T11:54:56;95888.59;;;26.02;100.00
41686;BME280;27370;42.764;23.432;2023-08-12T11:57:26;95890.88;;;25.92;100.00
41686;BME280;27370;42.764;23.432;2023-08-12T12:00:03;95888.19;;;25.49;100.00
41686;BME280;27370;42.764;23.432;2023-08-12T12:02:56;95891.81;;;25.72;100.00
41686;BME280;27370;42.764;23.432;2023-08-12T12:05:26;95877.97;;;25.78;100.00
41686;BME280;27370;42.764;23.432;2023-08-12T12:07:53;95882.03;;;25.93;100.00
41686;BME280;27370;42.764;23.432;2023-08-12T12:10:20;95880.81;;;26.11;100.00
41686;BME280;27370;42.764;23.432;2023-08-12T12:12:47;95866.97;;;26.39;100.00
41686;BME280;27370;42.764;23.432;2023-08-12T12:15:13;95871.28;;;26.46;100.00
41686;BME280;27370;42.764;23.432;2023-08-12T12:17:40;95871.75;;;26.78;100.00
41686;BME280;27370;42.764;23.432;2023-08-12T12:20:07;95858.97;;;27.38;100.00
41686;BME280;27370;42.764;23.432;2023-08-12T12:22:36;95860.25;;;27.95;100.00
41686;BME280;27370;42.764;23.432;2023-08-12T12:25:09;95854.69;;;28.36;100.00
41686;BME280;27370;42.764;23.432;2023-08-12T12:27:37;95851.09;;;28.42;100.00
41686;BME280;27370;42.764;23.432;2023-08-12T12:30:03;95861.72;;;28.02;100.00
41686;BME280;27370;42.764;23.432;2023-08-12T12:32:28;95852.38;;;28.41;100.00
41686;BME280;27370;42.764;23.432;2023-08-12T12:34:54;95857.91;;;28.76;100.00
41686;BME280;27370;42.764;23.432;2023-08-12T12:37:20;95847.53;;;29.01;100.00
41686;BME280;27370;42.764;23.432;2023-08-12T12:39:46;95846.13;;;29.56;100.00
41686;BME280;27370;42.764;23.432;2023-08-12T12:42:12;95843.41;;;29.08;100.00
41686;BME280;27370;42.764;23.432;2023-08-12T12:44:38;95840.34;;;29.30;100.00
41686;BME280;27370;42.764;23.432;2023-08-12T12:47:04;95852.28;;;29.06;100.00
41686;BME280;27370;42.764;23.432;2023-08-12T12:49:30;95842.97;;;28.44;100.00
41686;BME280;27370;42.764;23.432;2023-08-12T12:51:55;95850.31;;;28.05;100.00